createdAt,value
2019-04-21T00:00:39.802Z,47.35
2019-04-21T00:03:21.429Z,47.11
2019-04-21T00:06:08.889Z,47.61
2019-04-21T00:08:45.869Z,48.26
2019-04-21T00:11:22.514Z,49.11
2019-04-21T00:13:53.835Z,48.61
2019-04-21T00:16:23.672Z,48.15
2019-04-21T00:19:28.448Z,48.57
2019-04-21T00:22:11.662Z,48.25
2019-04-21T00:24:53.447Z,47.92
2019-04-21T00:27:28.592Z,48.27
2019-04-21T00:30:05.936Z,49.25
2019-04-21T00:32:33.412Z,49.46
2019-04-21T00:35:00.948Z,50.23
2019-04-21T00:37:58.851Z,50.86
2019-04-21T00:40:35.250Z,52.01
2019-04-21T00:43:03.742Z,51.33
2019-04-21T00:45:33.697Z,51.24
2019-04-21T00:48:25.438Z,51.98
2019-04-21T00:51:15.003Z,52.67
2019-04-21T00:53:51.874Z,53.13
2019-04-21T00:56:34.051Z,53.11
2019-04-21T00:59:02.396Z,52.70
2019-04-21T01:01:37.937Z,51.92
2019-04-21T01:04:09.754Z,52.21
2019-04-21T01:06:54.477Z,52.10
2019-04-21T01:09:29.004Z,52.09
2019-04-21T01:12:09.891Z,52.78
2019-04-21T01:14:49.699Z,52.46
2019-04-21T01:17:22.858Z,52.68
2019-04-21T01:19:51.202Z,52.66
2019-04-21T01:22:11.983Z,53.61
2019-04-21T01:24:48.731Z,53.65
2019-04-21T01:27:31.948Z,53.21
2019-04-21T01:30:16.379Z,53.26
2019-04-21T01:32:55.768Z,52.80
2019-04-21T01:35:25.677Z,53.13
2019-04-21T01:38:02.963Z,53.73
2019-04-21T01:40:43.285Z,54.12
2019-04-21T01:43:17.656Z,54.19
2019-04-21T01:45:48.743Z,54.00
2019-04-21T01:48:24.722Z,54.16
2019-04-21T01:51:05.311Z,53.85
2019-04-21T01:53:59.563Z,53.88
2019-04-21T01:56:51.233Z,54.21
2019-04-21T01:59:18.470Z,54.91
2019-04-21T02:02:13.890Z,55.31
2019-04-21T02:04:54.268Z,54.42
2019-04-21T02:07:20.608Z,54.20
2019-04-21T02:10:03.383Z,54.73
2019-04-21T02:12:34.502Z,54.29
2019-04-21T02:15:11.339Z,54.28
2019-04-21T02:17:49.843Z,54.29
2019-04-21T02:20:16.589Z,54.78
2019-04-21T02:23:10.035Z,55.02
2019-04-21T02:25:40.043Z,54.93
2019-04-21T02:28:11.413Z,55.78
2019-04-21T02:36:27.239Z,55.58
2019-04-21T02:38:50.314Z,55.55
2019-04-21T02:41:15.753Z,55.65
2019-04-21T02:43:54.384Z,55.84
2019-04-21T02:46:35.885Z,55.83
2019-04-21T02:49:04.151Z,55.85
2019-04-21T02:51:46.182Z,55.96
2019-04-21T02:54:45.853Z,56.14
2019-04-21T02:56:52.943Z,55.57
2019-04-21T02:59:50.272Z,55.02
2019-04-21T03:02:35.013Z,54.79
2019-04-21T03:10:53.260Z,53.84
2019-04-21T03:13:29.147Z,53.92
2019-04-21T03:16:11.865Z,53.92
2019-04-21T03:18:42.048Z,53.97
2019-04-21T03:21:23.985Z,53.92
2019-04-21T03:23:59.676Z,53.91
2019-04-21T03:26:27.426Z,53.87
2019-04-21T03:32:05.659Z,53.97
2019-04-21T03:39:35.078Z,54.85
2019-04-21T03:44:37.385Z,54.89
2019-04-21T03:49:59.883Z,54.58
2019-04-21T03:55:51.436Z,56.78
2019-04-21T04:01:17.957Z,55.22
2019-04-21T04:04:21.975Z,55.85
2019-04-21T04:07:10.953Z,56.21
2019-04-21T04:09:54.050Z,56.09
2019-04-21T04:12:19.290Z,55.45
2019-04-21T04:17:38.006Z,56.07
2019-04-21T04:20:20.487Z,57.14
2019-04-21T04:22:48.166Z,56.76
2019-04-21T04:25:21.409Z,56.82
2019-04-21T04:30:34.030Z,58.92
2019-04-21T04:33:12.465Z,58.62
2019-04-21T04:35:52.856Z,58.20
2019-04-21T04:38:33.766Z,58.22
2019-04-21T04:41:12.101Z,58.01
2019-04-21T04:43:37.200Z,57.66
2019-04-21T04:46:33.459Z,57.45
2019-04-21T04:48:57.287Z,57.51
2019-04-21T04:51:37.061Z,58.02
2019-04-21T04:53:58.707Z,57.58
2019-04-21T04:56:38.814Z,56.98
2019-04-21T05:04:30.637Z,54.77
2019-04-21T05:09:41.385Z,53.82
2019-04-21T05:12:17.558Z,52.94
2019-04-21T05:14:55.098Z,52.01
2019-04-21T05:22:53.262Z,51.58
2019-04-21T05:25:25.049Z,50.74
2019-04-21T05:27:56.919Z,49.70
2019-04-21T05:30:48.953Z,48.83
2019-04-21T05:33:38.387Z,48.49
2019-04-21T05:36:27.892Z,48.00
2019-04-21T05:39:14.770Z,47.49
2019-04-21T05:41:47.015Z,46.73
2019-04-21T05:44:44.380Z,45.57
2019-04-21T05:47:23.708Z,44.62
2019-04-21T05:49:55.983Z,43.96
2019-04-21T05:52:29.567Z,43.94
2019-04-21T05:55:10.975Z,43.30
2019-04-21T05:57:46.686Z,41.22
2019-04-21T06:00:23.545Z,40.37
2019-04-21T06:03:00.689Z,39.94
2019-04-21T06:05:44.605Z,39.14
2019-04-21T06:08:16.006Z,38.98
2019-04-21T06:10:49.514Z,38.05
2019-04-21T06:13:27.507Z,38.06
2019-04-21T06:16:03.483Z,37.82
2019-04-21T06:18:41.334Z,36.88
2019-04-21T06:21:07.222Z,36.75
2019-04-21T06:23:40.185Z,36.63
2019-04-21T06:26:44.936Z,36.34
2019-04-21T06:29:04.003Z,35.37
2019-04-21T06:34:04.729Z,34.11
2019-04-21T06:36:45.069Z,33.44
2019-04-21T06:41:58.620Z,32.42
2019-04-21T06:44:33.603Z,32.44
2019-04-21T06:47:05.967Z,32.74
2019-04-21T06:49:40.125Z,32.53
2019-04-21T06:55:00.106Z,31.64
2019-04-21T06:57:28.970Z,31.74
2019-04-21T07:00:04.200Z,31.69
2019-04-21T07:02:45.055Z,32.03
2019-04-21T07:05:13.280Z,30.65
2019-04-21T07:07:55.188Z,30.54
2019-04-21T07:10:26.046Z,31.33
2019-04-21T07:12:51.617Z,31.05
2019-04-21T07:15:35.215Z,30.77
2019-04-21T07:18:12.422Z,30.37
2019-04-21T07:20:50.555Z,29.46
2019-04-21T07:23:28.530Z,28.73
2019-04-21T07:26:00.979Z,29.96
2019-04-21T07:28:36.320Z,29.37
2019-04-21T07:31:14.139Z,30.90
2019-04-21T07:33:53.467Z,30.39
2019-04-21T07:36:21.859Z,30.22
2019-04-21T07:38:49.878Z,30.32
2019-04-21T07:41:20.046Z,29.56
2019-04-21T07:43:57.198Z,29.60
2019-04-21T07:46:30.000Z,29.69
2019-04-21T07:49:19.138Z,29.16
2019-04-21T07:52:05.698Z,28.91
2019-04-21T07:54:37.355Z,29.95
2019-04-21T07:56:58.968Z,29.15
2019-04-21T07:59:48.520Z,29.30
2019-04-21T08:02:18.886Z,29.12
2019-04-21T08:07:30.746Z,29.59
2019-04-21T08:10:00.060Z,29.43
2019-04-21T08:12:30.612Z,29.19
2019-04-21T08:15:18.116Z,29.10
2019-04-21T08:17:49.203Z,28.67
2019-04-21T08:20:18.487Z,29.69
2019-04-21T08:23:02.521Z,29.59
2019-04-21T08:25:53.336Z,28.65
2019-04-21T08:28:07.490Z,29.96
2019-04-21T08:30:42.991Z,29.14
2019-04-21T08:33:26.246Z,28.85
2019-04-21T08:38:31.470Z,27.65
2019-04-21T08:41:11.081Z,28.31
2019-04-21T08:44:01.673Z,28.56
2019-04-21T08:46:13.842Z,27.02
2019-04-21T08:48:52.731Z,28.32
2019-04-21T08:51:30.223Z,28.35
2019-04-21T08:54:02.395Z,26.36
2019-04-21T08:56:48.308Z,26.45
2019-04-21T08:59:43.784Z,27.37
2019-04-21T09:02:29.461Z,27.86
2019-04-21T09:05:01.494Z,27.02
2019-04-21T09:07:41.417Z,27.22
2019-04-21T09:10:09.432Z,27.02
2019-04-21T09:12:43.129Z,27.36
2019-04-21T09:15:21.692Z,27.67
2019-04-21T09:17:44.788Z,27.22
2019-04-21T09:20:32.855Z,26.90
2019-04-21T09:23:06.437Z,26.86
2019-04-21T09:25:40.734Z,27.25
2019-04-21T09:28:11.108Z,28.43
2019-04-21T09:30:39.483Z,28.27
2019-04-21T09:33:05.650Z,27.43
2019-04-21T09:35:47.378Z,26.86
2019-04-21T09:38:26.250Z,26.85
2019-04-21T09:40:54.004Z,25.90
2019-04-21T09:43:35.766Z,26.79
2019-04-21T09:46:04.273Z,25.57
2019-04-21T09:48:51.356Z,26.81
2019-04-21T09:51:13.111Z,26.73
2019-04-21T09:53:54.572Z,27.17
2019-04-21T09:56:32.452Z,26.96
2019-04-21T09:59:09.143Z,27.43
2019-04-21T10:01:57.602Z,26.78
2019-04-21T10:04:20.807Z,25.36
2019-04-21T10:06:54.489Z,26.51
2019-04-21T10:09:47.897Z,26.59
2019-04-21T10:12:25.650Z,25.11
2019-04-21T10:15:01.900Z,25.65
2019-04-21T10:17:41.670Z,24.49
2019-04-21T10:20:17.037Z,26.04
2019-04-21T10:22:55.288Z,25.18
2019-04-21T10:25:30.712Z,25.57
2019-04-21T10:28:05.148Z,25.64
2019-04-21T10:30:38.765Z,24.71
2019-04-21T10:33:12.542Z,24.95
2019-04-21T10:35:46.778Z,25.43
2019-04-21T10:38:33.206Z,25.55
2019-04-21T10:40:59.185Z,23.96
2019-04-21T10:43:33.448Z,25.26
2019-04-21T10:46:08.677Z,24.41
2019-04-21T10:48:43.166Z,24.94
2019-04-21T10:51:17.159Z,25.38
2019-04-21T10:53:52.846Z,25.83
2019-04-21T10:56:34.459Z,25.46
2019-04-21T10:59:04.511Z,24.83
2019-04-21T11:01:38.982Z,23.65
2019-04-21T11:04:35.400Z,23.94
2019-04-21T11:07:31.184Z,24.70
2019-04-21T11:10:02.506Z,23.38
2019-04-21T11:12:39.258Z,24.57
2019-04-21T11:15:12.940Z,24.03
2019-04-21T11:17:52.365Z,24.44
2019-04-21T11:20:28.757Z,24.71
2019-04-21T11:23:02.116Z,25.52
2019-04-21T11:25:36.290Z,24.40
2019-04-21T11:28:11.101Z,25.25
2019-04-21T11:30:44.701Z,25.94
2019-04-21T11:33:19.378Z,24.07
2019-04-21T11:35:53.265Z,23.60
2019-04-21T11:39:02.408Z,24.26
2019-04-21T11:41:21.647Z,23.89
2019-04-21T11:43:55.077Z,23.12
2019-04-21T11:46:28.664Z,23.86
2019-04-21T11:49:02.435Z,23.73
2019-04-21T11:51:37.427Z,24.32
2019-04-21T11:54:11.022Z,23.75
2019-04-21T11:56:45.129Z,23.25
2019-04-21T11:59:19.618Z,23.06
2019-04-21T12:01:57.331Z,25.20
2019-04-21T12:04:43.425Z,24.28
2019-04-21T12:07:37.613Z,23.42
2019-04-21T12:10:43.008Z,23.65
2019-04-21T12:13:22.418Z,23.31
2019-04-21T12:15:57.141Z,23.51
2019-04-21T12:18:34.484Z,23.45
2019-04-21T12:21:07.839Z,24.27
2019-04-21T12:23:50.651Z,24.32
2019-04-21T12:26:24.431Z,24.40
2019-04-21T12:29:01.821Z,24.89
2019-04-21T12:31:57.250Z,23.90
2019-04-21T12:34:32.389Z,23.50
2019-04-21T12:37:08.854Z,25.08
2019-04-21T12:39:43.066Z,23.07
2019-04-21T12:42:16.768Z,23.97
2019-04-21T12:44:51.415Z,24.79
2019-04-21T12:47:32.113Z,24.44
2019-04-21T12:50:10.928Z,24.57
2019-04-21T12:52:45.321Z,24.21
2019-04-21T12:55:31.880Z,24.13
2019-04-21T12:58:05.964Z,22.94
2019-04-21T13:00:40.935Z,23.40
2019-04-21T13:03:15.888Z,24.32
2019-04-21T13:05:50.138Z,23.34
2019-04-21T13:08:23.373Z,23.24
2019-04-21T13:10:58.030Z,22.29
2019-04-21T13:13:32.184Z,22.64
2019-04-21T13:16:05.612Z,23.24
2019-04-21T13:18:39.603Z,23.35
2019-04-21T13:21:13.965Z,22.57
2019-04-21T13:23:47.287Z,22.44
2019-04-21T13:26:29.588Z,24.21
2019-04-21T13:28:56.435Z,24.09
2019-04-21T13:31:30.036Z,23.94
2019-04-21T13:34:04.171Z,22.85
2019-04-21T13:36:41.425Z,23.36
2019-04-21T13:39:57.048Z,25.28
2019-04-21T13:42:19.828Z,27.14
2019-04-21T13:44:44.641Z,25.98
2019-04-21T13:47:18.634Z,29.18
2019-04-21T13:49:53.162Z,24.49
2019-04-21T13:52:28.916Z,25.31
2019-04-21T13:55:03.302Z,23.03
2019-04-21T13:57:38.797Z,23.09
2019-04-21T14:00:13.200Z,23.51
2019-04-21T14:02:46.980Z,25.57
2019-04-21T14:05:22.382Z,24.56
2019-04-21T14:07:56.483Z,24.44
2019-04-21T14:10:31.479Z,24.82
2019-04-21T14:13:04.950Z,23.78
2019-04-21T14:15:39.864Z,24.18
2019-04-21T14:18:13.170Z,24.26
2019-04-21T14:20:46.920Z,23.40
2019-04-21T14:23:29.933Z,24.00
2019-04-21T14:25:55.723Z,24.69
2019-04-21T14:28:30.195Z,23.85
2019-04-21T14:31:04.272Z,24.42
2019-04-21T14:33:38.249Z,23.22
2019-04-21T14:36:12.780Z,23.89
2019-04-21T14:38:47.043Z,23.46
2019-04-21T14:41:20.116Z,24.24
2019-04-21T14:43:53.308Z,24.86
2019-04-21T14:46:33.119Z,24.11
2019-04-21T14:49:33.137Z,24.08
2019-04-21T14:52:30.865Z,24.06
2019-04-21T14:55:18.497Z,23.92
2019-04-21T14:57:51.697Z,24.33
2019-04-21T15:00:31.273Z,24.01
2019-04-21T15:03:05.592Z,24.29
2019-04-21T15:05:39.779Z,24.28
2019-04-21T15:08:13.138Z,23.61
2019-04-21T15:10:47.174Z,23.93
2019-04-21T15:13:21.827Z,23.78
2019-04-21T15:15:56.158Z,24.16
2019-04-21T15:18:30.591Z,24.66
2019-04-21T15:21:04.012Z,24.62
2019-04-21T15:23:38.226Z,24.00
2019-04-21T15:26:12.301Z,25.00
2019-04-21T15:28:46.795Z,24.00
2019-04-21T15:31:29.848Z,24.64
2019-04-21T15:33:54.975Z,24.83
2019-04-21T15:36:31.726Z,24.51
2019-04-21T15:39:03.626Z,24.24
2019-04-21T15:41:37.031Z,25.30
2019-04-21T15:44:10.252Z,24.74
2019-04-21T15:46:43.976Z,24.37
2019-04-21T15:49:18.167Z,24.50
2019-04-21T15:51:51.904Z,24.30
2019-04-21T15:54:25.225Z,24.51
2019-04-21T15:57:08.979Z,24.30
2019-04-21T16:00:04.682Z,24.56
2019-04-21T16:02:42.637Z,24.60
2019-04-21T16:05:17.206Z,24.68
2019-04-21T16:07:51.986Z,24.50
2019-04-21T16:10:34.403Z,24.67
2019-04-21T16:13:01.565Z,24.66
2019-04-21T16:15:34.753Z,24.20
2019-04-21T16:18:08.033Z,24.67
2019-04-21T16:20:41.871Z,24.44
2019-04-21T16:23:18.241Z,24.73
2019-04-21T16:25:52.731Z,24.78
2019-04-21T16:28:27.008Z,24.44
2019-04-21T16:31:00.534Z,24.57
2019-04-21T16:33:34.956Z,24.80
2019-04-21T16:36:10.336Z,25.33
2019-04-21T16:38:43.787Z,25.37
2019-04-21T16:41:18.241Z,25.61
2019-04-21T16:43:53.202Z,25.56
2019-04-21T16:46:27.461Z,25.75
2019-04-21T16:49:01.994Z,25.56
2019-04-21T16:51:36.057Z,25.70
2019-04-21T16:54:24.008Z,25.89
2019-04-21T16:57:15.553Z,26.04
2019-04-21T16:59:52.734Z,26.29
2019-04-21T17:02:26.280Z,26.30
2019-04-21T17:05:00.444Z,26.23
2019-04-21T17:07:33.744Z,26.32
2019-04-21T17:10:08.559Z,26.84
2019-04-21T17:12:43.222Z,26.89
2019-04-21T17:15:32.398Z,26.90
2019-04-21T17:18:26.820Z,27.08
2019-04-21T17:21:19.451Z,31.12
2019-04-21T17:24:28.612Z,28.26
2019-04-21T17:27:07.138Z,27.91
2019-04-21T17:29:43.116Z,27.90
2019-04-21T17:32:20.459Z,28.40
2019-04-21T17:34:54.477Z,28.56
2019-04-21T17:37:29.243Z,28.95
2019-04-21T17:40:05.319Z,29.71
2019-04-21T17:42:46.444Z,30.17
2019-04-21T17:45:17.354Z,30.60
2019-04-21T17:48:15.900Z,31.04
2019-04-21T17:51:07.590Z,31.61
2019-04-21T17:54:02.588Z,31.46
2019-04-21T17:56:59.571Z,31.24
2019-04-21T17:59:41.463Z,31.07
2019-04-21T18:02:03.983Z,31.39
2019-04-21T18:04:41.539Z,31.48
2019-04-21T18:07:27.539Z,31.92
2019-04-21T18:10:05.006Z,32.52
2019-04-21T18:12:36.433Z,32.39
2019-04-21T18:15:16.574Z,32.04
2019-04-21T18:17:34.267Z,32.49
2019-04-21T18:20:08.243Z,32.54
2019-04-21T18:23:17.640Z,33.45
2019-04-21T18:25:54.862Z,33.25
2019-04-21T18:28:21.325Z,33.52
2019-04-21T18:31:04.709Z,34.06
2019-04-21T18:33:43.907Z,34.45
2019-04-21T18:36:29.068Z,34.96
2019-04-21T18:39:40.967Z,34.74
2019-04-21T18:42:27.539Z,34.14
2019-04-21T18:48:02.353Z,31.49
2019-04-21T18:50:45.998Z,30.93
2019-04-21T18:53:36.412Z,30.20
2019-04-21T18:56:00.344Z,30.11
2019-04-21T18:58:28.895Z,30.11
2019-04-21T19:01:07.329Z,30.11
2019-04-21T19:03:43.082Z,30.33
2019-04-21T19:06:17.381Z,30.40
2019-04-21T19:09:07.653Z,30.89
2019-04-21T19:11:35.916Z,31.45
2019-04-21T19:14:32.187Z,31.18
2019-04-21T19:17:10.747Z,31.29
2019-04-21T19:19:46.482Z,31.63
2019-04-21T19:22:20.434Z,31.94
2019-04-21T19:24:59.416Z,30.51
2019-04-21T19:27:22.690Z,30.82
2019-04-21T19:30:05.717Z,30.50
2019-04-21T19:32:29.045Z,30.57
2019-04-21T19:34:57.044Z,30.63
2019-04-21T19:37:26.832Z,30.04
2019-04-21T19:40:12.115Z,29.71
2019-04-21T19:42:45.672Z,29.98
2019-04-21T19:45:22.470Z,29.77
2019-04-21T19:48:08.206Z,29.92
2019-04-21T19:50:42.490Z,30.14
2019-04-21T19:53:20.022Z,30.13
2019-04-21T19:55:40.470Z,29.65
2019-04-21T19:58:14.880Z,29.74
2019-04-21T20:00:52.445Z,29.95
2019-04-21T20:03:26.291Z,30.16
2019-04-21T20:06:10.786Z,30.31
2019-04-21T20:09:17.830Z,30.37
2019-04-21T20:11:52.510Z,30.24
2019-04-21T20:14:50.991Z,30.47
2019-04-21T20:16:59.307Z,30.54
2019-04-21T20:19:22.938Z,30.44
2019-04-21T20:21:57.049Z,30.38
2019-04-21T20:24:33.658Z,30.21
2019-04-21T20:27:15.031Z,30.68
2019-04-21T20:29:57.524Z,30.85
2019-04-21T20:32:34.726Z,30.62
2019-04-21T20:35:30.784Z,30.65
2019-04-21T20:37:42.346Z,30.59
2019-04-21T20:40:05.165Z,30.78
2019-04-21T20:42:47.012Z,30.93
2019-04-21T20:45:49.377Z,30.79
2019-04-21T20:47:54.007Z,31.05
2019-04-21T20:50:37.936Z,30.60
2019-04-21T20:53:17.908Z,30.79
2019-04-21T20:55:48.975Z,30.60
2019-04-21T20:58:28.460Z,30.83
2019-04-21T21:01:21.931Z,30.81
2019-04-21T21:03:39.400Z,30.79
2019-04-21T21:06:15.817Z,30.95
2019-04-21T21:08:50.186Z,30.86
2019-04-21T21:11:26.046Z,31.10
2019-04-21T21:13:58.714Z,31.28
2019-04-21T21:16:44.694Z,31.09
2019-04-21T21:19:18.517Z,30.96
2019-04-21T21:21:44.223Z,31.33
2019-04-21T21:24:22.240Z,31.06
2019-04-21T21:27:03.865Z,31.15
2019-04-21T21:29:45.344Z,31.41
2019-04-21T21:32:16.238Z,31.39
2019-04-21T21:34:47.433Z,31.57
2019-04-21T21:37:26.843Z,31.76
2019-04-21T21:39:58.410Z,31.91
2019-04-21T21:42:09.870Z,31.88
2019-04-21T21:44:51.771Z,32.16
2019-04-21T21:47:37.580Z,31.96
2019-04-21T21:50:07.702Z,32.02
2019-04-21T21:52:42.429Z,32.21
2019-04-21T21:55:05.634Z,32.46
2019-04-21T21:57:44.362Z,32.46
2019-04-21T22:00:17.112Z,32.47
2019-04-21T22:02:55.025Z,32.66
2019-04-21T22:05:33.123Z,32.50
2019-04-21T22:08:04.726Z,32.56
2019-04-21T22:10:39.166Z,32.63
2019-04-21T22:13:17.580Z,33.10
2019-04-21T22:16:00.377Z,33.32
2019-04-21T22:18:39.119Z,33.54
2019-04-21T22:21:09.951Z,33.77
2019-04-21T22:23:43.745Z,33.96
2019-04-21T22:26:13.509Z,34.28
2019-04-21T22:28:47.624Z,34.42
2019-04-21T22:31:28.418Z,34.60
2019-04-21T22:34:03.808Z,34.95
2019-04-21T22:36:44.812Z,35.04
2019-04-21T22:39:31.689Z,35.38
2019-04-21T22:41:49.222Z,35.58
2019-04-21T22:44:22.595Z,35.86
2019-04-21T22:47:07.222Z,36.10
2019-04-21T22:49:32.344Z,36.57
2019-04-21T22:52:15.146Z,37.11
2019-04-21T22:54:46.658Z,37.21
2019-04-21T22:57:23.057Z,37.43
2019-04-21T23:00:00.926Z,38.16
2019-04-21T23:02:33.245Z,38.42
2019-04-21T23:05:05.959Z,38.66
2019-04-21T23:07:41.443Z,39.15
2019-04-21T23:10:14.763Z,39.56
2019-04-21T23:12:52.054Z,39.83
2019-04-21T23:15:37.249Z,40.30
2019-04-21T23:18:22.056Z,40.50
2019-04-21T23:21:00.428Z,40.82
2019-04-21T23:23:38.395Z,40.69
2019-04-21T23:26:09.151Z,40.92
2019-04-21T23:28:45.498Z,41.08
2019-04-21T23:31:18.318Z,40.91
2019-04-21T23:33:34.623Z,41.33
2019-04-21T23:36:13.723Z,41.68
2019-04-21T23:38:46.221Z,41.74
2019-04-21T23:41:17.720Z,41.62
2019-04-21T23:43:59.382Z,41.89
2019-04-21T23:46:31.290Z,41.97
2019-04-21T23:49:17.942Z,42.04
2019-04-21T23:51:45.187Z,41.87
2019-04-21T23:54:11.495Z,42.15
2019-04-21T23:56:47.591Z,42.43
2019-04-21T23:59:20.568Z,42.95
